KMNN/MNN METAR and TAF weather

Enter ICAO airport designator
Station Type Date Time Source
KMNN METAR 2020/07/10 19:53 UTC NOAA

KMNN 101953Z AUTO 21003KT 10SM BKN050 BKN065 OVC080 23/20 A2980 RMK AO2 PK WND 25042/1858 WSHFT 1847 LTG DSNT SE AND S RAB1857E27 TSE29 SLP083 P0031 T02280200 $


Station Type Date Time Source
KMNN Decoded METAR 2020/07/10 19:53 UTC NOAA

MARION MUNICIPAL AIRPORT, OH, United States (KMNN) 40-37N 83-04W 301M
Jul 10, 2020 - 03:53 PM EDT / 2020.07.10 1953 UTC
Wind: from the SSW (210 degrees) at 3 MPH (3 KT):0
Visibility: 10 mile(s):0
Sky conditions: overcast
Weather: Lightning observed
Precipitation last hour: 0.31 inches
Temperature: 73.0 F (22.8 C)
Dew Point: 68.0 F (20.0 C)
Relative Humidity: 84%
Pressure (altimeter): 29.8 in. Hg (1009 hPa)
ob: KMNN 101953Z AUTO 21003KT 10SM BKN050 BKN065 OVC080 23/20 A2980 RMK AO2 PK WND 25042/1858 WSHFT 1847 LTG DSNT SE AND S RAB1857E27 TSE29 SLP083 P0031 T02280200
cycle: 20

Station Type Date Time Source
KMNN TAF UTC NOAA

Error!

Example: see airport list